createdAt,value
2023-04-17T00:01:44.518Z,3.55
2023-04-17T00:04:13.157Z,3.60
2023-04-17T00:06:43.399Z,3.50
2023-04-17T00:09:12.567Z,3.35
2023-04-17T00:11:39.637Z,2.97
2023-04-17T00:14:06.688Z,3.15
2023-04-17T00:16:33.616Z,2.92
2023-04-17T00:19:00.504Z,2.47
2023-04-17T00:21:29.922Z,2.67
2023-04-17T00:23:56.847Z,3.20
2023-04-17T00:26:23.999Z,2.40
2023-04-17T00:28:51.810Z,2.75
2023-04-17T00:31:18.788Z,2.00
2023-04-17T00:33:46.449Z,2.42
2023-04-17T00:36:13.922Z,2.38
2023-04-17T00:38:41.005Z,2.85
2023-04-17T00:41:07.815Z,2.55
2023-04-17T00:43:34.750Z,2.60
2023-04-17T00:46:02.269Z,3.22
2023-04-17T00:48:34.033Z,2.78
2023-04-17T00:51:02.414Z,2.25
2023-04-17T00:53:31.163Z,2.90
2023-04-17T00:56:04.040Z,2.70
2023-04-17T00:58:31.611Z,3.05
2023-04-17T01:00:59.253Z,2.83
2023-04-17T01:03:26.464Z,2.30
2023-04-17T01:05:53.593Z,2.65
2023-04-17T01:08:20.595Z,2.25
2023-04-17T01:10:47.933Z,2.20
2023-04-17T01:13:14.965Z,2.92
2023-04-17T01:15:43.310Z,2.83
2023-04-17T01:18:10.279Z,2.95
2023-04-17T01:20:37.657Z,2.95
2023-04-17T01:23:04.482Z,2.88
2023-04-17T01:25:31.438Z,2.92
2023-04-17T01:27:58.358Z,2.80
2023-04-17T01:30:27.204Z,2.03
2023-04-17T01:32:57.739Z,1.95
2023-04-17T01:35:24.704Z,2.15
2023-04-17T01:37:52.157Z,2.10
2023-04-17T01:40:18.956Z,1.65
2023-04-17T01:42:45.810Z,1.75
2023-04-17T01:45:12.749Z,1.60
2023-04-17T01:47:40.719Z,1.80
2023-04-17T01:50:09.169Z,2.08
2023-04-17T01:52:36.554Z,2.08
2023-04-17T01:55:04.285Z,1.98
2023-04-17T01:57:35.229Z,2.17
2023-04-17T02:00:02.120Z,1.83
2023-04-17T02:02:39.485Z,1.60
2023-04-17T02:05:06.934Z,1.83
2023-04-17T02:07:33.761Z,1.55
2023-04-17T02:10:00.691Z,1.60
2023-04-17T02:12:27.596Z,1.40
2023-04-17T02:14:54.411Z,2.10
2023-04-17T02:17:21.293Z,1.92
2023-04-17T02:19:48.311Z,1.67
2023-04-17T02:22:15.381Z,1.60
2023-04-17T02:24:42.157Z,1.58
2023-04-17T02:27:08.899Z,1.95
2023-04-17T02:29:35.696Z,1.90
2023-04-17T02:32:02.512Z,1.70
2023-04-17T02:34:30.060Z,1.75
2023-04-17T02:36:57.182Z,1.95
2023-04-17T02:39:24.675Z,2.03
2023-04-17T02:41:51.509Z,2.40
2023-04-17T02:44:18.318Z,1.75
2023-04-17T02:46:45.471Z,1.70
2023-04-17T02:49:13.309Z,2.30
2023-04-17T02:51:40.387Z,2.38
2023-04-17T02:54:07.212Z,1.83
2023-04-17T02:56:34.050Z,1.92
2023-04-17T02:59:00.878Z,2.08
2023-04-17T03:01:28.020Z,1.83
2023-04-17T03:03:55.137Z,1.80
2023-04-17T03:06:24.069Z,2.08
2023-04-17T03:08:51.584Z,2.72
2023-04-17T03:11:18.798Z,1.95
2023-04-17T03:13:45.695Z,2.65
2023-04-17T03:16:13.901Z,1.77
2023-04-17T03:18:41.754Z,2.00
2023-04-17T03:21:09.517Z,1.90
2023-04-17T03:23:36.814Z,1.70
2023-04-17T03:26:06.227Z,2.15
2023-04-17T03:28:33.849Z,2.03
2023-04-17T03:31:02.047Z,1.77
2023-04-17T03:33:30.568Z,1.85
2023-04-17T03:35:58.549Z,1.80
2023-04-17T03:38:26.118Z,2.05
2023-04-17T03:40:54.101Z,1.52
2023-04-17T03:43:23.586Z,1.63
2023-04-17T03:45:51.436Z,1.98
2023-04-17T03:48:18.889Z,1.80
2023-04-17T03:50:48.197Z,1.50
2023-04-17T03:53:15.242Z,1.60
2023-04-17T03:55:42.305Z,1.80
2023-04-17T03:58:14.139Z,2.33
2023-04-17T04:00:41.021Z,1.42
2023-04-17T04:03:11.076Z,1.45
2023-04-17T04:05:41.461Z,1.35
2023-04-17T04:08:10.170Z,1.23
2023-04-17T04:10:49.789Z,1.40
2023-04-17T04:13:22.049Z,1.35
2023-04-17T04:15:54.977Z,1.30
2023-04-17T04:18:24.934Z,1.50
2023-04-17T04:20:52.302Z,1.48
2023-04-17T04:23:30.217Z,1.70
2023-04-17T04:25:57.946Z,1.85
2023-04-17T04:28:32.878Z,2.00
2023-04-17T04:31:02.587Z,2.20
2023-04-17T04:33:37.208Z,2.15
2023-04-17T04:36:04.214Z,2.00
2023-04-17T04:38:35.618Z,1.95
2023-04-17T04:41:10.438Z,2.50
2023-04-17T04:43:38.770Z,2.38
2023-04-17T04:46:08.041Z,2.03
2023-04-17T04:48:42.058Z,1.40
2023-04-17T04:51:09.748Z,3.17
2023-04-17T04:53:37.906Z,2.15
2023-04-17T04:56:05.888Z,1.73
2023-04-17T04:58:33.962Z,1.67
2023-04-17T05:01:02.634Z,2.33
2023-04-17T05:06:03.749Z,1.52
2023-04-17T05:08:40.625Z,1.58
2023-04-17T05:11:11.621Z,1.60
2023-04-17T05:13:38.465Z,1.77
2023-04-17T05:16:09.364Z,2.03
2023-04-17T05:18:36.418Z,2.20
2023-04-17T05:21:03.674Z,1.88
2023-04-17T05:23:30.585Z,2.38
2023-04-17T05:25:57.482Z,2.17
2023-04-17T05:28:24.452Z,1.88
2023-04-17T05:30:54.777Z,2.72
2023-04-17T05:33:29.176Z,1.90
2023-04-17T05:36:00.494Z,1.85
2023-04-17T05:38:27.535Z,2.13
2023-04-17T05:40:54.487Z,2.05
2023-04-17T05:43:21.504Z,2.20
2023-04-17T05:45:49.088Z,1.88
2023-04-17T05:48:16.207Z,1.92
2023-04-17T05:50:43.115Z,1.95
2023-04-17T05:53:10.075Z,2.30
2023-04-17T05:55:44.518Z,2.15
2023-04-17T06:00:42.961Z,1.80
2023-04-17T06:03:13.303Z,2.08
2023-04-17T06:05:41.519Z,2.03
2023-04-17T06:08:09.691Z,1.83
2023-04-17T06:10:36.822Z,2.13
2023-04-17T06:13:03.709Z,2.30
2023-04-17T06:15:30.892Z,2.58
2023-04-17T06:17:57.878Z,1.92
2023-04-17T06:20:24.741Z,2.60
2023-04-17T06:22:51.551Z,2.03
2023-04-17T06:25:19.096Z,2.00
2023-04-17T06:27:46.383Z,1.65
2023-04-17T06:30:13.511Z,2.10
2023-04-17T06:32:52.889Z,1.90
2023-04-17T06:35:20.922Z,2.10
2023-04-17T06:37:52.869Z,2.40
2023-04-17T06:40:19.844Z,2.05
2023-04-17T06:42:46.678Z,2.22
2023-04-17T06:47:46.938Z,1.90
2023-04-17T06:50:17.110Z,2.08
2023-04-17T06:52:43.994Z,2.33
2023-04-17T06:55:11.298Z,2.65
2023-04-17T06:57:39.134Z,3.08
2023-04-17T07:00:06.738Z,1.83
2023-04-17T07:02:33.849Z,2.40
2023-04-17T07:05:01.128Z,2.50
2023-04-17T07:07:30.035Z,3.88
2023-04-17T07:09:57.498Z,3.47
2023-04-17T07:12:24.480Z,2.88
2023-04-17T07:14:51.323Z,2.30
2023-04-17T07:17:18.290Z,3.00
2023-04-17T07:19:45.395Z,3.72
2023-04-17T07:22:12.149Z,3.50
2023-04-17T07:24:39.009Z,3.95
2023-04-17T07:27:07.286Z,2.88
2023-04-17T07:29:37.682Z,3.17
2023-04-17T07:32:05.091Z,3.45
2023-04-17T07:34:34.359Z,3.42
2023-04-17T07:37:01.760Z,3.70
2023-04-17T07:39:31.562Z,3.42
2023-04-17T07:41:58.869Z,4.53
2023-04-17T07:44:25.677Z,3.80
2023-04-17T07:46:52.548Z,4.10
2023-04-17T07:49:19.398Z,3.50
2023-04-17T07:51:46.171Z,4.00
2023-04-17T07:54:13.284Z,3.95
2023-04-17T07:56:40.311Z,3.22
2023-04-17T07:59:07.176Z,3.17
2023-04-17T08:01:34.053Z,3.63
2023-04-17T08:04:01.298Z,2.70
2023-04-17T08:06:28.593Z,2.65
2023-04-17T08:08:59.916Z,2.75
2023-04-17T08:11:26.727Z,3.40
2023-04-17T08:13:54.191Z,3.60
2023-04-17T08:16:21.324Z,3.65
2023-04-17T08:18:48.202Z,4.05
2023-04-17T08:21:14.988Z,3.30
2023-04-17T08:23:41.899Z,3.50
2023-04-17T08:26:08.705Z,4.82
2023-04-17T08:28:35.528Z,3.50
2023-04-17T08:31:02.428Z,3.67
2023-04-17T08:33:29.269Z,3.13
2023-04-17T08:35:56.080Z,2.80
2023-04-17T08:38:22.891Z,2.83
2023-04-17T08:40:55.718Z,2.88
2023-04-17T08:43:23.826Z,3.25
2023-04-17T08:45:54.228Z,3.53
2023-04-17T08:48:22.616Z,2.03
2023-04-17T08:50:51.072Z,2.65
2023-04-17T08:53:18.924Z,3.90
2023-04-17T08:55:46.841Z,2.60
2023-04-17T08:58:14.622Z,2.83
2023-04-17T09:00:44.238Z,3.20
2023-04-17T09:03:12.875Z,2.78
2023-04-17T09:05:46.569Z,2.80
2023-04-17T09:08:14.309Z,3.90
2023-04-17T09:10:46.484Z,4.97
2023-04-17T09:13:15.670Z,3.75
2023-04-17T09:15:43.919Z,4.82
2023-04-17T09:18:24.702Z,4.97
2023-04-17T09:20:51.992Z,4.50
2023-04-17T09:23:19.146Z,3.97
2023-04-17T09:25:46.317Z,4.35
2023-04-17T09:28:16.674Z,4.32
2023-04-17T09:30:46.323Z,4.20
2023-04-17T09:33:13.144Z,4.88
2023-04-17T09:35:40.493Z,4.18
2023-04-17T09:38:09.759Z,4.55
2023-04-17T09:40:38.874Z,5.25
2023-04-17T09:43:09.956Z,4.07
2023-04-17T09:45:41.821Z,3.40
2023-04-17T09:48:11.620Z,3.63
2023-04-17T09:50:39.387Z,3.47
2023-04-17T09:53:08.007Z,3.85
2023-04-17T09:55:36.850Z,3.10
2023-04-17T09:58:06.359Z,3.17
2023-04-17T10:00:33.350Z,2.63
2023-04-17T10:03:00.504Z,3.17
2023-04-17T10:05:30.284Z,2.63
2023-04-17T10:07:57.491Z,2.63
2023-04-17T10:10:26.506Z,2.45
2023-04-17T10:12:56.832Z,2.60
2023-04-17T10:15:25.019Z,2.75
2023-04-17T10:17:52.835Z,2.90
2023-04-17T10:20:23.145Z,3.05
2023-04-17T10:22:56.206Z,3.28
2023-04-17T10:25:30.919Z,3.13
2023-04-17T10:28:01.987Z,2.45
2023-04-17T10:30:51.029Z,2.70
2023-04-17T10:33:25.743Z,2.88
2023-04-17T10:35:53.545Z,1.98
2023-04-17T10:38:34.475Z,2.30
2023-04-17T10:41:03.934Z,1.65
2023-04-17T10:43:31.202Z,1.23
2023-04-17T10:45:58.056Z,1.67
2023-04-17T10:48:36.649Z,1.80
2023-04-17T10:51:24.362Z,1.80
2023-04-17T10:53:58.868Z,2.15
2023-04-17T10:56:25.892Z,2.38
2023-04-17T10:59:04.100Z,1.90
2023-04-17T11:01:37.109Z,1.85
2023-04-17T11:04:05.018Z,2.15
2023-04-17T11:06:33.802Z,2.50
2023-04-17T11:09:00.858Z,1.70
2023-04-17T11:11:42.930Z,1.30
2023-04-17T11:14:17.659Z,1.30
2023-04-17T11:16:47.939Z,1.27
2023-04-17T11:19:25.674Z,2.17
2023-04-17T11:21:54.066Z,1.90
2023-04-17T11:24:24.643Z,1.70
2023-04-17T11:26:51.529Z,2.10
2023-04-17T11:29:22.101Z,2.22
2023-04-17T11:31:54.672Z,2.55
2023-04-17T11:37:00.232Z,2.83
2023-04-17T11:39:32.629Z,2.20
2023-04-17T11:41:59.620Z,2.08
2023-04-17T11:44:26.511Z,2.63
2023-04-17T11:46:54.884Z,2.50
2023-04-17T11:49:29.416Z,2.55
2023-04-17T11:51:58.951Z,2.92
2023-04-17T11:54:39.126Z,2.80
2023-04-17T11:57:11.386Z,3.45
2023-04-17T11:59:39.522Z,2.50
2023-04-17T12:02:08.266Z,2.40
2023-04-17T12:04:36.969Z,2.45
2023-04-17T12:07:05.558Z,2.05
2023-04-17T12:09:34.477Z,3.08
2023-04-17T12:12:04.736Z,2.30
2023-04-17T12:14:32.414Z,1.83
2023-04-17T12:16:59.774Z,2.17
2023-04-17T12:19:31.743Z,1.77
2023-04-17T12:21:59.632Z,1.60
2023-04-17T12:24:26.767Z,1.98
2023-04-17T12:26:53.663Z,1.50
2023-04-17T12:29:32.291Z,1.33
2023-04-17T12:32:07.945Z,1.52
2023-04-17T12:34:34.937Z,2.33
2023-04-17T12:37:01.784Z,1.63
2023-04-17T12:39:28.569Z,1.95
2023-04-17T12:41:55.314Z,1.92
2023-04-17T12:44:22.054Z,2.60
2023-04-17T12:46:48.856Z,1.50
2023-04-17T12:49:15.907Z,1.33
2023-04-17T12:51:42.691Z,1.70
2023-04-17T12:54:09.451Z,1.50
2023-04-17T12:56:36.354Z,1.88
2023-04-17T12:59:03.413Z,1.50
2023-04-17T13:01:30.532Z,2.53
2023-04-17T13:03:57.593Z,1.40
2023-04-17T13:06:27.960Z,1.30
2023-04-17T13:08:54.709Z,2.30
2023-04-17T13:11:21.808Z,2.17
2023-04-17T13:13:48.594Z,1.85
2023-04-17T13:16:18.301Z,1.80
2023-04-17T13:18:45.100Z,1.88
2023-04-17T13:21:11.871Z,2.25
2023-04-17T13:23:38.728Z,2.20
2023-04-17T13:26:05.946Z,1.83
2023-04-17T13:28:32.706Z,1.65
2023-04-17T13:30:59.529Z,1.95
2023-04-17T13:33:26.355Z,2.25
2023-04-17T13:35:53.957Z,2.78
2023-04-17T13:38:20.886Z,1.95
2023-04-17T13:40:47.730Z,2.47
2023-04-17T13:43:14.593Z,2.00
2023-04-17T13:45:41.850Z,2.30
2023-04-17T13:48:08.890Z,2.45
2023-04-17T13:50:35.730Z,2.25
2023-04-17T13:53:03.000Z,2.10
2023-04-17T13:55:29.825Z,2.92
2023-04-17T13:57:57.455Z,2.20
2023-04-17T14:00:24.343Z,2.00
2023-04-17T14:02:51.342Z,2.75
2023-04-17T14:05:18.213Z,2.22
2023-04-17T14:07:45.203Z,1.88
2023-04-17T14:10:12.178Z,2.08
2023-04-17T14:12:39.002Z,2.30
2023-04-17T14:15:07.374Z,2.80
2023-04-17T14:17:37.943Z,2.55
2023-04-17T14:20:05.832Z,2.55
2023-04-17T14:22:32.638Z,2.55
2023-04-17T14:24:59.476Z,2.65
2023-04-17T14:27:26.298Z,2.08
2023-04-17T14:29:53.112Z,3.65
2023-04-17T14:32:22.964Z,2.28
2023-04-17T14:34:49.816Z,3.85
2023-04-17T14:37:16.583Z,2.60
2023-04-17T14:39:43.404Z,2.55
2023-04-17T14:42:10.289Z,3.10
2023-04-17T14:44:37.091Z,3.33
2023-04-17T14:47:04.135Z,3.88
2023-04-17T14:49:31.136Z,3.40
2023-04-17T14:51:57.946Z,10.10
2023-04-17T14:54:24.903Z,3.53
2023-04-17T14:56:51.795Z,4.43
2023-04-17T14:59:18.672Z,4.60
2023-04-17T15:01:46.119Z,6.70
2023-04-17T15:04:13.159Z,4.22
2023-04-17T15:06:40.277Z,4.82
2023-04-17T15:09:07.150Z,4.60
2023-04-17T15:11:34.019Z,4.82
2023-04-17T15:14:00.920Z,4.28
2023-04-17T15:16:27.882Z,4.68
2023-04-17T15:18:54.721Z,5.20
2023-04-17T15:21:24.362Z,4.32
2023-04-17T15:23:51.253Z,3.72
2023-04-17T15:26:18.136Z,12.48
2023-04-17T15:28:44.966Z,4.72
2023-04-17T15:31:14.468Z,4.80
2023-04-17T15:33:41.359Z,5.45
2023-04-17T15:36:08.245Z,5.28
2023-04-17T15:38:35.132Z,4.03
2023-04-17T15:41:03.588Z,4.47
2023-04-17T15:43:30.956Z,4.00
2023-04-17T15:45:59.054Z,4.43
2023-04-17T15:48:25.985Z,4.38
2023-04-17T15:50:52.728Z,5.10
2023-04-17T15:53:19.527Z,4.57
2023-04-17T15:55:46.378Z,4.15
2023-04-17T15:58:13.266Z,4.72
2023-04-17T16:00:40.056Z,4.90
2023-04-17T16:03:09.598Z,4.28
2023-04-17T16:05:36.656Z,3.70
2023-04-17T16:08:03.609Z,3.83
2023-04-17T16:10:33.048Z,4.38
2023-04-17T16:12:59.870Z,4.72
2023-04-17T16:15:26.723Z,5.53
2023-04-17T16:17:53.566Z,4.97
2023-04-17T16:20:21.773Z,4.55
2023-04-17T16:22:48.543Z,5.38
2023-04-17T16:25:15.412Z,5.55
2023-04-17T16:27:42.342Z,5.32
2023-04-17T16:30:10.419Z,5.38
2023-04-17T16:32:37.253Z,4.80
2023-04-17T16:35:04.499Z,4.70
2023-04-17T16:37:31.328Z,4.50
2023-04-17T16:40:04.061Z,5.57
2023-04-17T16:42:32.263Z,5.65
2023-04-17T16:44:59.089Z,4.63
2023-04-17T16:47:26.047Z,4.97
2023-04-17T16:49:52.877Z,4.68
2023-04-17T16:52:19.667Z,4.80
2023-04-17T16:54:46.504Z,3.80
2023-04-17T16:57:13.277Z,4.90
2023-04-17T16:59:41.834Z,4.68
2023-04-17T17:02:08.703Z,5.35
2023-04-17T17:04:35.572Z,5.00
2023-04-17T17:07:02.809Z,5.93
2023-04-17T17:09:29.642Z,7.15
2023-04-17T17:11:56.839Z,8.52
2023-04-17T17:14:23.646Z,7.95
2023-04-17T17:16:50.536Z,5.35
2023-04-17T17:19:17.404Z,4.03
2023-04-17T17:21:44.349Z,4.15
2023-04-17T17:24:11.252Z,4.78
2023-04-17T17:26:38.054Z,5.63
2023-04-17T17:29:04.923Z,4.57
2023-04-17T17:31:33.637Z,4.90
2023-04-17T17:34:11.940Z,5.28
2023-04-17T17:36:49.307Z,6.05
2023-04-17T17:39:16.455Z,7.00
2023-04-17T17:41:45.777Z,5.07
2023-04-17T17:44:14.359Z,5.95
2023-04-17T17:46:41.675Z,5.63
2023-04-17T17:49:08.569Z,5.28
2023-04-17T17:51:35.499Z,3.53
2023-04-17T17:54:02.333Z,4.40
2023-04-17T17:56:31.985Z,4.32
2023-04-17T17:58:59.001Z,3.72
2023-04-17T18:01:26.222Z,3.28
2023-04-17T18:03:53.678Z,3.17
2023-04-17T18:06:21.177Z,3.58
2023-04-17T18:08:48.258Z,3.15
2023-04-17T18:11:16.608Z,3.05
2023-04-17T18:13:43.395Z,3.65
2023-04-17T18:16:10.537Z,3.20
2023-04-17T18:18:37.464Z,3.08
2023-04-17T18:21:08.400Z,4.05
2023-04-17T18:23:35.628Z,3.55
2023-04-17T18:26:05.338Z,3.75
2023-04-17T18:28:33.022Z,3.72
2023-04-17T18:30:59.844Z,4.10
2023-04-17T18:33:26.655Z,4.57
2023-04-17T18:35:53.475Z,3.25
2023-04-17T18:38:20.261Z,3.33
2023-04-17T18:40:47.009Z,3.03
2023-04-17T18:43:13.804Z,3.50
2023-04-17T18:45:40.626Z,4.00
2023-04-17T18:48:10.341Z,4.43
2023-04-17T18:50:38.717Z,3.85
2023-04-17T18:53:05.670Z,4.95
2023-04-17T18:55:32.922Z,5.97
2023-04-17T18:58:00.144Z,9.05
2023-04-17T19:00:27.211Z,7.65
2023-04-17T19:02:55.001Z,6.50
2023-04-17T19:05:22.741Z,5.30
2023-04-17T19:07:51.189Z,5.43
2023-04-17T19:10:18.328Z,5.88
2023-04-17T19:12:45.289Z,8.10
2023-04-17T19:15:17.452Z,8.20
2023-04-17T19:17:45.118Z,7.10
2023-04-17T19:20:16.698Z,7.93
2023-04-17T19:22:43.614Z,7.78
2023-04-17T19:25:12.715Z,8.02
2023-04-17T19:27:39.644Z,8.57
2023-04-17T19:30:08.618Z,8.85
2023-04-17T19:32:36.608Z,8.63
2023-04-17T19:35:04.060Z,8.52
2023-04-17T19:37:31.904Z,9.45
2023-04-17T19:39:58.977Z,9.48
2023-04-17T19:42:29.378Z,8.25
2023-04-17T19:44:56.186Z,7.97
2023-04-17T19:47:24.117Z,8.07
2023-04-17T19:49:51.029Z,8.82
2023-04-17T19:52:18.922Z,8.38
2023-04-17T19:54:47.995Z,8.73
2023-04-17T19:57:19.051Z,9.00
2023-04-17T19:59:46.231Z,9.07
2023-04-17T20:02:14.061Z,9.35
2023-04-17T20:04:43.701Z,8.25
2023-04-17T20:07:10.521Z,9.60
2023-04-17T20:09:37.313Z,8.13
2023-04-17T20:12:04.338Z,8.52
2023-04-17T20:14:32.239Z,7.65
2023-04-17T20:17:01.166Z,9.73
2023-04-17T20:19:28.886Z,8.85
2023-04-17T20:21:57.788Z,8.90
2023-04-17T20:24:25.196Z,8.85
2023-04-17T20:26:53.201Z,9.00
2023-04-17T20:29:22.588Z,7.45
2023-04-17T20:31:50.252Z,7.40
2023-04-17T20:34:17.493Z,9.18
2023-04-17T20:36:45.405Z,7.72
2023-04-17T20:39:15.440Z,8.75
